Time;durP1;ratioP1;P1;durP2;ratioP2;P2;SDS_P1;SDS_P2;PMS_P1;PMS_P2;Temp;Humidity;BMP_temperature;BMP_pressure;BME280_temperature;BME280_humidity;BME280_pressure;Samples;Min_cycle;Max_cycle;Signal;HPM_P1;HPM_P2
2022/12/16 00:00:30;;;;;;;90.53;9.27;;;;;;;;;;5011438;28;20777;-59
2022/12/16 00:03:01;;;;;;;66.05;7.85;;;;;;;;;;5010336;28;20029;-50
2022/12/16 00:05:29;;;;;;;80.88;8.15;;;;;;;;;;5011549;28;20559;-51
2022/12/16 00:07:56;;;;;;;93.45;10.07;;;;;;;;;;5011539;28;20415;-51
2022/12/16 00:10:23;;;;;;;110.72;11.35;;;;;;;;;;5009758;28;20034;-54
2022/12/16 00:12:50;;;;;;;106.47;11.13;;;;;;;;;;5045638;28;20129;-50
2022/12/16 00:15:17;;;;;;;71.78;8.25;;;;;;;;;;5029217;28;20021;-53
2022/12/16 00:17:44;;;;;;;67.18;8.23;;;;;;;;;;5053068;28;20036;-50
2022/12/16 00:20:11;;;;;;;106.93;13.80;;;;;;;;;;5054450;28;20025;-52
2022/12/16 00:22:38;;;;;;;105.40;12.88;;;;;;;;;;5054847;28;20033;-51
2022/12/16 00:25:06;;;;;;;153.10;14.45;;;;;;;;;;5054918;28;20047;-54
2022/12/16 00:27:33;;;;;;;123.10;12.50;;;;;;;;;;5054759;28;20094;-51
2022/12/16 00:30:00;;;;;;;94.68;11.35;;;;;;;;;;5054624;28;20048;-54
2022/12/16 00:32:27;;;;;;;95.20;9.48;;;;;;;;;;5054650;28;20483;-54
2022/12/16 00:34:56;;;;;;;79.85;9.43;;;;;;;;;;5054794;28;20100;-56
2022/12/16 00:37:23;;;;;;;109.47;11.73;;;;;;;;;;5054802;28;20025;-57
2022/12/16 00:39:50;;;;;;;86.75;10.32;;;;;;;;;;5046624;28;20108;-53
2022/12/16 00:42:17;;;;;;;71.47;9.88;;;;;;;;;;5044022;28;20022;-56
2022/12/16 00:44:44;;;;;;;90.95;9.98;;;;;;;;;;5054274;28;20032;-53
2022/12/16 00:47:11;;;;;;;107.55;9.90;;;;;;;;;;5053708;28;20036;-54
2022/12/16 00:49:38;;;;;;;68.60;7.38;;;;;;;;;;5053850;28;20470;-52
2022/12/16 00:52:05;;;;;;;65.30;7.22;;;;;;;;;;5054778;28;20040;-58
2022/12/16 00:54:32;;;;;;;70.82;8.18;;;;;;;;;;5041266;28;20039;-58
2022/12/16 00:56:59;;;;;;;65.32;8.30;;;;;;;;;;5034802;28;20479;-59
2022/12/16 00:59:26;;;;;;;62.28;7.25;;;;;;;;;;5034528;28;20109;-54
2022/12/16 01:01:53;;;;;;;50.78;6.82;;;;;;;;;;5034029;28;20029;-52
2022/12/16 01:04:20;;;;;;;63.47;7.53;;;;;;;;;;5034486;28;20026;-51
2022/12/16 01:06:47;;;;;;;68.63;7.50;;;;;;;;;;5034184;28;20037;-52
2022/12/16 01:09:14;;;;;;;56.33;5.40;;;;;;;;;;5022579;28;20107;-58
2022/12/16 01:11:43;;;;;;;58.85;5.60;;;;;;;;;;5054029;28;20071;-58
2022/12/16 01:14:10;;;;;;;61.72;6.72;;;;;;;;;;5053967;28;20033;-58
2022/12/16 01:16:37;;;;;;;46.40;5.03;;;;;;;;;;5051489;28;20032;-59
2022/12/16 01:19:04;;;;;;;38.00;4.70;;;;;;;;;;5041154;28;20476;-58
2022/12/16 01:21:31;;;;;;;37.17;4.72;;;;;;;;;;5035488;28;20034;-58
2022/12/16 01:23:58;;;;;;;34.17;4.38;;;;;;;;;;5044997;28;20043;-58
2022/12/16 01:26:25;;;;;;;24.13;3.70;;;;;;;;;;5044383;28;20109;-51
2022/12/16 01:28:52;;;;;;;29.63;3.90;;;;;;;;;;5026806;28;20491;-49
2022/12/16 01:31:20;;;;;;;49.42;5.22;;;;;;;;;;5043468;28;20398;-53
2022/12/16 01:33:47;;;;;;;33.33;4.00;;;;;;;;;;5044672;28;20036;-54
2022/12/16 01:36:14;;;;;;;27.27;4.05;;;;;;;;;;5050613;28;20035;-55
2022/12/16 01:38:43;;;;;;;29.13;3.53;;;;;;;;;;5034579;28;20033;-54
2022/12/16 01:41:10;;;;;;;34.53;4.65;;;;;;;;;;5041402;28;20063;-55
2022/12/16 01:43:38;;;;;;;27.17;4.05;;;;;;;;;;5046851;28;20115;-53
2022/12/16 01:46:14;;;;;;;37.00;3.92;;;;;;;;;;5037981;28;20033;-51
2022/12/16 01:49:01;;;;;;;33.00;4.07;;;;;;;;;;5038440;28;20110;-55
2022/12/16 01:51:40;;;;;;;34.28;4.07;;;;;;;;;;5042265;28;20041;-50
2022/12/16 01:54:22;;;;;;;29.63;4.03;;;;;;;;;;5042839;28;20032;-53
2022/12/16 01:56:48;;;;;;;;;;;;;;;;;;5028979;28;20053;-55
2022/12/16 01:59:17;;;;;;;61.85;20.70;;;;;;;;;;5041501;28;19913;-53
2022/12/16 02:01:44;;;;;;;56.83;19.63;;;;;;;;;;5043711;28;20091;-53
2022/12/16 02:04:11;;;;;;;38.88;12.95;;;;;;;;;;5042587;28;20049;-52
2022/12/16 02:06:38;;;;;;;29.45;7.65;;;;;;;;;;5041226;28;20028;-53
2022/12/16 02:09:07;;;;;;;27.17;5.57;;;;;;;;;;5038608;28;20044;-53
2022/12/16 02:11:40;;;;;;;24.63;4.40;;;;;;;;;;5042273;28;20045;-54
2022/12/16 02:14:27;;;;;;;30.88;4.03;;;;;;;;;;5038045;28;20025;-53
2022/12/16 02:17:03;;;;;;;27.50;3.42;;;;;;;;;;5040051;28;20046;-54
2022/12/16 02:19:39;;;;;;;18.27;2.63;;;;;;;;;;5049992;28;20061;-56
2022/12/16 02:22:29;;;;;;;14.40;2.10;;;;;;;;;;5034545;28;20391;-55
2022/12/16 02:25:02;;;;;;;18.98;2.40;;;;;;;;;;5024587;28;20041;-53
2022/12/16 02:27:29;;;;;;;23.58;2.25;;;;;;;;;;5052875;28;20063;-56
2022/12/16 02:29:56;;;;;;;21.75;2.20;;;;;;;;;;5052012;28;20025;-54
2022/12/16 02:32:41;;;;;;;13.57;2.08;;;;;;;;;;5052552;28;20021;-56
2022/12/16 02:35:14;;;;;;;13.43;1.92;;;;;;;;;;5052402;28;20560;-56
2022/12/16 02:37:56;;;;;;;24.70;3.03;;;;;;;;;;5052893;28;20025;-54
2022/12/16 02:40:29;;;;;;;41.63;3.30;;;;;;;;;;5052096;28;20028;-51
2022/12/16 02:43:11;;;;;;;44.50;5.78;;;;;;;;;;5052587;28;20037;-51
2022/12/16 02:45:38;;;;;;;48.63;5.35;;;;;;;;;;5050154;28;20036;-53
2022/12/16 02:48:06;;;;;;;18.83;2.05;;;;;;;;;;5043331;28;20033;-50
2022/12/16 02:50:38;;;;;;;135.80;10.57;;;;;;;;;;5041711;28;20494;-54
2022/12/16 02:53:07;;;;;;;88.43;7.75;;;;;;;;;;5041179;28;20021;-52
2022/12/16 02:55:54;;;;;;;42.50;3.40;;;;;;;;;;5042378;28;20121;-55
2022/12/16 02:58:41;;;;;;;45.17;3.42;;;;;;;;;;4993980;28;20457;-54
2022/12/16 03:01:26;;;;;;;38.08;2.78;;;;;;;;;;5042842;28;20065;-53
2022/12/16 03:04:14;;;;;;;29.42;2.70;;;;;;;;;;5039968;28;20384;-55
2022/12/16 03:06:42;;;;;;;24.40;2.22;;;;;;;;;;5032008;28;20521;-51
2022/12/16 03:09:10;;;;;;;18.20;1.98;;;;;;;;;;5038642;28;20037;-50
2022/12/16 03:11:40;;;;;;;38.90;3.40;;;;;;;;;;5041239;28;20052;-50
2022/12/16 03:14:07;;;;;;;36.22;3.38;;;;;;;;;;5041594;28;20021;-49
2022/12/16 03:16:34;;;;;;;51.30;3.78;;;;;;;;;;5052395;28;20031;-51
2022/12/16 03:19:05;;;;;;;28.05;2.30;;;;;;;;;;5034320;28;20410;-50
2022/12/16 03:21:36;;;;;;;58.90;4.33;;;;;;;;;;5052228;28;20117;-51
2022/12/16 03:24:06;;;;;;;33.95;3.15;;;;;;;;;;5052312;28;20029;-49
2022/12/16 03:26:52;;;;;;;37.88;3.20;;;;;;;;;;5052341;28;20103;-51
2022/12/16 03:29:22;;;;;;;29.70;2.70;;;;;;;;;;5052145;28;20441;-54
2022/12/16 03:32:00;;;;;;;34.63;2.63;;;;;;;;;;5052228;28;20029;-53
2022/12/16 03:34:35;;;;;;;29.38;3.15;;;;;;;;;;5052238;28;20028;-52
2022/12/16 03:37:07;;;;;;;39.20;3.90;;;;;;;;;;5052160;28;20039;-54
2022/12/16 03:39:36;;;;;;;40.92;3.38;;;;;;;;;;5051996;28;20103;-54
2022/12/16 03:42:04;;;;;;;33.53;3.20;;;;;;;;;;5052103;28;20104;-53
2022/12/16 03:44:32;;;;;;;32.55;3.58;;;;;;;;;;5052043;28;20036;-50
2022/12/16 03:46:59;;;;;;;40.33;3.60;;;;;;;;;;5034120;28;20064;-53
2022/12/16 03:49:26;;;;;;;23.98;3.08;;;;;;;;;;5051893;28;20513;-52
2022/12/16 03:51:54;;;;;;;39.90;4.32;;;;;;;;;;5051820;28;20025;-50
2022/12/16 03:54:22;;;;;;;33.20;3.05;;;;;;;;;;5051947;28;20112;-54
2022/12/16 03:56:49;;;;;;;30.90;2.28;;;;;;;;;;5051801;28;20087;-54
2022/12/16 03:59:16;;;;;;;29.15;2.58;;;;;;;;;;5051672;28;20040;-53
2022/12/16 04:01:43;;;;;;;17.00;2.10;;;;;;;;;;5051833;28;20533;-54
2022/12/16 04:04:10;;;;;;;24.38;2.63;;;;;;;;;;5051765;28;20025;-52
2022/12/16 04:06:37;;;;;;;44.47;4.07;;;;;;;;;;5051761;28;20032;-53
2022/12/16 04:09:04;;;;;;;32.33;2.65;;;;;;;;;;5033832;28;20029;-54
2022/12/16 04:25:25;;;;;;;20.52;2.38;;;;;;;;;;5032027;28;20044;-54
2022/12/16 04:27:52;;;;;;;17.77;2.10;;;;;;;;;;5031704;28;20033;-54
2022/12/16 04:30:20;;;;;;;13.55;2.05;;;;;;;;;;5031565;28;20056;-53
